Time;durP1;ratioP1;P1;durP2;ratioP2;P2;SDS_P1;SDS_P2;PMS_P1;PMS_P2;Temp;Humidity;BMP_temperature;BMP_pressure;BME280_temperature;BME280_humidity;BME280_pressure;Samples;Min_cycle;Max_cycle;Signal;HPM_P1;HPM_P2
2022/12/18 00:01:20;;;;;;;17.50;11.40;;;;;;;;;;5017191;28;20308;-81
2022/12/18 00:03:47;;;;;;;11.10;9.52;;;;;;;;;;5017088;28;20713;-80
2022/12/18 00:06:15;;;;;;;14.20;9.13;;;;;;;;;;5016213;28;20205;-81
2022/12/18 00:08:43;;;;;;;13.90;8.40;;;;;;;;;;5014900;28;20291;-81
2022/12/18 00:11:14;;;;;;;9.10;6.90;;;;;;;;;;5016810;28;20229;-81
2022/12/18 00:13:44;;;;;;;13.65;8.93;;;;;;;;;;5016686;28;20679;-81
2022/12/18 00:16:14;;;;;;;11.48;7.32;;;;;;;;;;4999119;28;20225;-80
2022/12/18 00:18:42;;;;;;;11.57;7.78;;;;;;;;;;5015585;28;20211;-81
2022/12/18 00:21:12;;;;;;;10.88;7.90;;;;;;;;;;5015817;28;20222;-79
2022/12/18 00:23:41;;;;;;;13.07;8.15;;;;;;;;;;5015743;28;20571;-80
2022/12/18 00:26:14;;;;;;;11.02;7.70;;;;;;;;;;5016759;28;20290;-81
2022/12/18 00:28:44;;;;;;;20.40;12.13;;;;;;;;;;5013330;28;20266;-81
2022/12/18 00:31:14;;;;;;;16.58;10.20;;;;;;;;;;5014308;28;20226;-81
2022/12/18 00:33:42;;;;;;;13.77;8.70;;;;;;;;;;5007728;28;20597;-79
2022/12/18 00:36:13;;;;;;;13.50;9.43;;;;;;;;;;5014800;28;20207;-81
2022/12/18 00:38:41;;;;;;;13.57;9.00;;;;;;;;;;5016866;28;20207;-80
2022/12/18 00:41:10;;;;;;;8.73;7.18;;;;;;;;;;5015132;28;20730;-81
2022/12/18 00:43:37;;;;;;;9.82;6.75;;;;;;;;;;5015482;28;20621;-81
2022/12/18 00:46:06;;;;;;;9.73;7.35;;;;;;;;;;5015902;28;20222;-81
2022/12/18 00:48:34;;;;;;;13.45;10.05;;;;;;;;;;5015734;28;20274;-80
2022/12/18 00:51:01;;;;;;;13.15;9.18;;;;;;;;;;5013076;28;20309;-81
2022/12/18 00:53:29;;;;;;;13.15;9.52;;;;;;;;;;5018555;28;20218;-79
2022/12/18 00:55:56;;;;;;;10.07;8.90;;;;;;;;;;5005295;28;20234;-81
2022/12/18 00:58:24;;;;;;;11.30;7.82;;;;;;;;;;5020208;28;20223;-78
2022/12/18 01:00:51;;;;;;;16.00;11.13;;;;;;;;;;5037402;28;20245;-78
2022/12/18 01:03:20;;;;;;;10.88;8.88;;;;;;;;;;5036557;28;20179;-77
2022/12/18 01:05:48;;;;;;;13.27;8.80;;;;;;;;;;5037573;28;20227;-77
2022/12/18 01:08:15;;;;;;;15.20;10.27;;;;;;;;;;5039160;28;20211;-77
2022/12/18 01:10:42;;;;;;;13.32;9.07;;;;;;;;;;5033171;28;20246;-80
2022/12/18 01:13:10;;;;;;;22.23;12.98;;;;;;;;;;5022656;28;20254;-81
2022/12/18 01:15:37;;;;;;;11.93;8.77;;;;;;;;;;5019609;28;20291;-81
2022/12/18 01:18:05;;;;;;;10.18;7.20;;;;;;;;;;5014408;28;20719;-79
2022/12/18 01:20:34;;;;;;;13.75;9.52;;;;;;;;;;4998196;28;20266;-81
2022/12/18 01:23:02;;;;;;;12.35;7.97;;;;;;;;;;5014075;28;20286;-81
2022/12/18 01:25:29;;;;;;;6.88;6.00;;;;;;;;;;5015974;28;20238;-80
2022/12/18 01:27:57;;;;;;;8.90;7.53;;;;;;;;;;5016483;28;20231;-81
2022/12/18 01:30:24;;;;;;;9.80;7.65;;;;;;;;;;5015901;28;20294;-81
2022/12/18 01:32:51;;;;;;;13.45;7.60;;;;;;;;;;5013264;28;20254;-81
2022/12/18 01:35:19;;;;;;;13.32;9.55;;;;;;;;;;5014698;28;20201;-80
2022/12/18 01:37:48;;;;;;;11.75;8.48;;;;;;;;;;5014898;28;20294;-81
2022/12/18 01:40:15;;;;;;;12.25;7.85;;;;;;;;;;5015803;28;20294;-80
2022/12/18 01:42:43;;;;;;;8.98;6.03;;;;;;;;;;5015206;28;20205;-80
2022/12/18 01:45:28;;;;;;;12.07;9.18;;;;;;;;;;5014584;28;20626;-81
2022/12/18 01:47:58;;;;;;;8.40;7.05;;;;;;;;;;5015271;28;20282;-80
2022/12/18 01:50:30;;;;;;;11.82;7.25;;;;;;;;;;5015277;28;20211;-79
2022/12/18 01:53:02;;;;;;;10.43;8.52;;;;;;;;;;5014132;28;20219;-80
2022/12/18 01:55:32;;;;;;;11.85;8.63;;;;;;;;;;5015130;28;20199;-81
2022/12/18 01:58:01;;;;;;;16.65;9.95;;;;;;;;;;5014623;28;20206;-79
2022/12/18 02:00:30;;;;;;;11.50;7.60;;;;;;;;;;5014268;28;20221;-81
2022/12/18 02:02:57;;;;;;;11.32;7.25;;;;;;;;;;5014380;28;20194;-80
2022/12/18 02:05:35;;;;;;;10.18;6.05;;;;;;;;;;5014731;28;20206;-81
2022/12/18 02:08:11;;;;;;;9.55;7.70;;;;;;;;;;5013581;28;20563;-79
2022/12/18 02:10:47;;;;;;;9.88;7.88;;;;;;;;;;5014683;28;20223;-80
2022/12/18 02:13:21;;;;;;;9.73;8.25;;;;;;;;;;5014108;28;20230;-81
2022/12/18 02:15:56;;;;;;;11.48;7.43;;;;;;;;;;5012352;28;20630;-79
2022/12/18 02:18:27;;;;;;;10.35;7.22;;;;;;;;;;5013189;28;20199;-80
2022/12/18 02:20:59;;;;;;;10.40;7.20;;;;;;;;;;5014178;28;20219;-78
2022/12/18 02:23:46;;;;;;;10.27;6.72;;;;;;;;;;5013226;28;20765;-79
2022/12/18 02:26:20;;;;;;;11.45;7.10;;;;;;;;;;5010379;28;20586;-80
2022/12/18 02:28:50;;;;;;;11.68;7.88;;;;;;;;;;5009316;28;20214;-80
2022/12/18 02:31:25;;;;;;;10.48;6.28;;;;;;;;;;5012138;28;20222;-79
2022/12/18 02:33:57;;;;;;;14.07;7.93;;;;;;;;;;5010016;28;20218;-78
2022/12/18 02:36:25;;;;;;;8.48;7.28;;;;;;;;;;5014850;28;20600;-78
2022/12/18 02:38:54;;;;;;;11.65;7.93;;;;;;;;;;5013699;28;20298;-79
2022/12/18 02:41:26;;;;;;;16.08;10.73;;;;;;;;;;5014751;28;20302;-79
2022/12/18 02:44:01;;;;;;;13.05;9.00;;;;;;;;;;5014124;28;20552;-79
2022/12/18 02:46:35;;;;;;;10.27;6.72;;;;;;;;;;5014071;28;20289;-80
2022/12/18 02:49:20;;;;;;;12.70;8.23;;;;;;;;;;5008352;28;20206;-80
2022/12/18 02:51:54;;;;;;;11.73;7.93;;;;;;;;;;5009844;28;20290;-78
2022/12/18 02:54:35;;;;;;;10.00;7.40;;;;;;;;;;5011824;28;20229;-80
2022/12/18 02:57:11;;;;;;;12.32;7.90;;;;;;;;;;5012977;28;20202;-79
2022/12/18 02:59:45;;;;;;;8.93;6.60;;;;;;;;;;5013701;28;20286;-79
2022/12/18 03:02:21;;;;;;;10.55;7.25;;;;;;;;;;5013478;28;20781;-79
2022/12/18 03:04:54;;;;;;;9.32;6.68;;;;;;;;;;5013720;28;20202;-80
2022/12/18 03:07:43;;;;;;;8.50;7.57;;;;;;;;;;5012270;28;20195;-78
2022/12/18 03:10:14;;;;;;;10.95;6.18;;;;;;;;;;5012967;28;20199;-80
2022/12/18 03:12:48;;;;;;;8.32;6.38;;;;;;;;;;5013642;28;20203;-79
2022/12/18 03:15:19;;;;;;;6.93;5.65;;;;;;;;;;5013366;28;20206;-79
2022/12/18 03:17:51;;;;;;;8.40;7.28;;;;;;;;;;5012822;28;20288;-81
2022/12/18 03:20:22;;;;;;;11.35;7.13;;;;;;;;;;5012556;28;20725;-81
2022/12/18 03:22:56;;;;;;;10.18;6.50;;;;;;;;;;5016342;28;20290;-80
2022/12/18 03:25:24;;;;;;;13.45;8.60;;;;;;;;;;5016327;28;20201;-81
2022/12/18 03:27:57;;;;;;;12.45;8.35;;;;;;;;;;5017018;28;20290;-80
2022/12/18 03:30:25;;;;;;;12.18;9.13;;;;;;;;;;5016839;28;20218;-80
2022/12/18 03:32:57;;;;;;;13.35;9.35;;;;;;;;;;5016534;28;20245;-80
2022/12/18 03:35:31;;;;;;;17.63;10.88;;;;;;;;;;5016917;28;20221;-80
2022/12/18 03:37:59;;;;;;;16.48;9.25;;;;;;;;;;5016290;28;20206;-79
2022/12/18 03:40:36;;;;;;;12.57;9.00;;;;;;;;;;5015282;28;20250;-78
2022/12/18 03:43:10;;;;;;;12.57;9.95;;;;;;;;;;5019073;28;20203;-79
2022/12/18 03:45:41;;;;;;;13.82;9.68;;;;;;;;;;5030405;28;20222;-77
2022/12/18 03:48:14;;;;;;;9.32;7.13;;;;;;;;;;5027132;28;20286;-78
2022/12/18 03:50:48;;;;;;;9.52;7.38;;;;;;;;;;5026138;28;20215;-77
2022/12/18 03:53:24;;;;;;;8.80;7.65;;;;;;;;;;5010895;28;20271;-78
2022/12/18 03:55:53;;;;;;;14.00;9.55;;;;;;;;;;5027274;28;20229;-78
2022/12/18 03:58:25;;;;;;;11.55;7.13;;;;;;;;;;5029043;28;20218;-77
2022/12/18 04:00:56;;;;;;;15.50;10.50;;;;;;;;;;5030080;28;20219;-78
2022/12/18 04:03:24;;;;;;;10.77;7.57;;;;;;;;;;5029518;28;20255;-78
2022/12/18 04:05:53;;;;;;;19.35;12.88;;;;;;;;;;5018682;28;20266;-80
2022/12/18 04:08:21;;;;;;;16.80;9.10;;;;;;;;;;5017383;28;20282;-81
2022/12/18 04:10:49;;;;;;;12.82;9.20;;;;;;;;;;5017791;28;20596;-81
2022/12/18 04:13:25;;;;;;;11.48;8.35;;;;;;;;;;5017239;28;20263;-80
2022/12/18 04:15:53;;;;;;;11.27;9.07;;;;;;;;;;5010372;28;20222;-80
2022/12/18 04:18:20;;;;;;;19.25;11.10;;;;;;;;;;5033181;28;20199;-79
2022/12/18 04:20:48;;;;;;;16.80;9.30;;;;;;;;;;5037802;28;20215;-79
2022/12/18 04:23:15;;;;;;;14.07;9.40;;;;;;;;;;5036872;28;20210;-78
2022/12/18 04:25:43;;;;;;;14.18;10.13;;;;;;;;;;5026110;28;20202;-79
2022/12/18 04:28:11;;;;;;;15.45;12.02;;;;;;;;;;5014243;28;20290;-81
2022/12/18 04:30:40;;;;;;;12.43;7.65;;;;;;;;;;5016236;28;20270;-82
2022/12/18 04:33:22;;;;;;;10.80;7.07;;;;;;;;;;5014379;28;20215;-81
2022/12/18 04:35:49;;;;;;;14.20;10.38;;;;;;;;;;5016509;28;20317;-81
2022/12/18 04:38:17;;;;;;;15.40;8.88;;;;;;;;;;5014679;28;20693;-81
2022/12/18 04:40:45;;;;;;;16.17;9.13;;;;;;;;;;5015367;28;20286;-79
2022/12/18 04:43:12;;;;;;;17.05;9.38;;;;;;;;;;5015901;28;20654;-80
2022/12/18 04:45:41;;;;;;;15.10;8.25;;;;;;;;;;5016059;28;20610;-80
2022/12/18 04:48:08;;;;;;;10.98;8.68;;;;;;;;;;5023573;28;20290;-79
2022/12/18 04:50:36;;;;;;;16.25;10.23;;;;;;;;;;5014915;28;20314;-81
2022/12/18 04:53:03;;;;;;;13.13;9.20;;;;;;;;;;5007043;28;20282;-80
2022/12/18 04:55:31;;;;;;;10.70;8.60;;;;;;;;;;5013864;28;20310;-81
2022/12/18 04:57:58;;;;;;;10.20;7.28;;;;;;;;;;5015248;28;20206;-81
2022/12/18 05:00:26;;;;;;;20.33;10.65;;;;;;;;;;5015033;28;20803;-81
2022/12/18 05:02:54;;;;;;;21.13;11.20;;;;;;;;;;5012395;28;20636;-80
2022/12/18 05:05:22;;;;;;;20.00;10.57;;;;;;;;;;5009786;28;20282;-80
2022/12/18 05:07:49;;;;;;;14.88;11.15;;;;;;;;;;5014800;28;20199;-79
2022/12/18 05:10:17;;;;;;;15.27;8.98;;;;;;;;;;5013674;28;20282;-80
2022/12/18 05:12:58;;;;;;;14.25;10.00;;;;;;;;;;5014711;28;20731;-79
2022/12/18 05:15:27;;;;;;;17.52;10.98;;;;;;;;;;5014328;28;20223;-80
2022/12/18 05:17:57;;;;;;;14.63;10.93;;;;;;;;;;5014977;28;20205;-77
2022/12/18 05:20:25;;;;;;;11.73;8.30;;;;;;;;;;5014711;28;20227;-80
2022/12/18 05:22:53;;;;;;;18.17;9.63;;;;;;;;;;5014844;28;20192;-81
2022/12/18 05:25:21;;;;;;;10.40;7.90;;;;;;;;;;5010172;28;20215;-81
2022/12/18 05:27:48;;;;;;;12.27;7.70;;;;;;;;;;5015110;28;20282;-81
2022/12/18 05:30:16;;;;;;;8.82;6.65;;;;;;;;;;5014499;28;20641;-79
2022/12/18 05:32:44;;;;;;;8.10;6.13;;;;;;;;;;5080266;22;20846;-84
2022/12/18 05:35:13;;;;;;;15.20;9.85;;;;;;;;;;5089547;28;20324;-84
2022/12/18 05:37:40;;;;;;;10.77;7.05;;;;;;;;;;5075984;28;20650;-81
2022/12/18 05:40:10;;;;;;;10.65;8.30;;;;;;;;;;5083332;28;20852;-82
2022/12/18 05:42:37;;;;;;;10.88;9.05;;;;;;;;;;5076666;28;20297;-81
2022/12/18 05:45:06;;;;;;;6.43;5.68;;;;;;;;;;5062195;28;20289;-81
2022/12/18 05:47:33;;;;;;;8.98;6.45;;;;;;;;;;5056516;28;20205;-83
2022/12/18 05:50:01;;;;;;;12.68;6.55;;;;;;;;;;5056598;28;20307;-83
2022/12/18 05:52:32;;;;;;;6.45;4.75;;;;;;;;;;5089492;28;20224;-81
2022/12/18 05:55:00;;;;;;;9.75;7.05;;;;;;;;;;5082455;28;20231;-81
2022/12/18 05:57:27;;;;;;;9.55;6.53;;;;;;;;;;5073069;28;20285;-83
2022/12/18 05:59:55;;;;;;;10.85;6.97;;;;;;;;;;5073944;28;20688;-82
2022/12/18 06:02:22;;;;;;;7.05;6.30;;;;;;;;;;5075259;28;20200;-83
2022/12/18 06:04:50;;;;;;;11.75;7.75;;;;;;;;;;5075422;28;20233;-83
2022/12/18 06:07:17;;;;;;;9.35;7.88;;;;;;;;;;5072109;28;20208;-83
2022/12/18 06:09:46;;;;;;;13.98;9.00;;;;;;;;;;5064646;28;20245;-83
2022/12/18 06:12:14;;;;;;;11.25;8.40;;;;;;;;;;5070384;28;20213;-82
2022/12/18 06:14:41;;;;;;;14.90;10.27;;;;;;;;;;5064039;28;20648;-81
2022/12/18 06:17:09;;;;;;;13.55;9.55;;;;;;;;;;5096425;28;20200;-82
2022/12/18 06:19:36;;;;;;;15.15;10.10;;;;;;;;;;5083458;28;20283;-81
2022/12/18 06:22:04;;;;;;;12.15;8.40;;;;;;;;;;5075578;28;20193;-82
2022/12/18 06:24:32;;;;;;;10.43;8.32;;;;;;;;;;5071572;28;20697;-81
2022/12/18 06:27:02;;;;;;;11.82;8.35;;;;;;;;;;5074094;28;20708;-83
2022/12/18 06:29:29;;;;;;;12.32;8.02;;;;;;;;;;5057020;28;20267;-82
2022/12/18 06:31:57;;;;;;;9.27;5.68;;;;;;;;;;5079044;28;20275;-83
2022/12/18 06:34:24;;;;;;;16.40;10.70;;;;;;;;;;5076981;28;20248;-83
2022/12/18 06:36:52;;;;;;;9.75;7.10;;;;;;;;;;5076103;28;20312;-82
2022/12/18 06:39:19;;;;;;;10.18;7.35;;;;;;;;;;5076885;28;20232;-84
2022/12/18 06:41:47;;;;;;;9.18;6.13;;;;;;;;;;5056370;28;20228;-81
2022/12/18 06:44:15;;;;;;;6.20;5.55;;;;;;;;;;5055645;28;20248;-81
2022/12/18 06:46:43;;;;;;;12.90;9.23;;;;;;;;;;5055955;28;20312;-82
2022/12/18 06:49:10;;;;;;;10.52;9.02;;;;;;;;;;5055164;28;20213;-80
2022/12/18 06:51:38;;;;;;;11.00;8.40;;;;;;;;;;5060528;28;20717;-78
2022/12/18 06:54:06;;;;;;;7.63;5.82;;;;;;;;;;5067101;28;20322;-82
2022/12/18 06:56:34;;;;;;;10.00;6.32;;;;;;;;;;5076697;28;20704;-80
2022/12/18 06:59:01;;;;;;;10.05;7.50;;;;;;;;;;5079438;28;20716;-81
2022/12/18 07:01:30;;;;;;;8.45;6.45;;;;;;;;;;5080915;28;20596;-80
2022/12/18 07:03:58;;;;;;;8.10;6.85;;;;;;;;;;5084947;28;20243;-84
2022/12/18 07:06:27;;;;;;;9.07;7.13;;;;;;;;;;5079624;28;20215;-81
2022/12/18 07:08:55;;;;;;;10.40;8.00;;;;;;;;;;5079715;28;20224;-80
2022/12/18 07:11:23;;;;;;;12.20;7.60;;;;;;;;;;5065318;28;20675;-81
2022/12/18 07:13:51;;;;;;;12.15;6.70;;;;;;;;;;5091806;28;20212;-84
2022/12/18 07:16:20;;;;;;;8.25;5.88;;;;;;;;;;5097840;28;20728;-83
2022/12/18 07:18:49;;;;;;;11.25;7.18;;;;;;;;;;5079111;28;20218;-82
2022/12/18 07:21:20;;;;;;;10.27;7.95;;;;;;;;;;5078741;28;20204;-81
2022/12/18 07:23:47;;;;;;;13.15;8.48;;;;;;;;;;5081150;28;20236;-80
2022/12/18 07:26:17;;;;;;;11.05;9.23;;;;;;;;;;5078145;28;20204;-81
2022/12/18 07:28:45;;;;;;;15.80;10.30;;;;;;;;;;5079384;28;20268;-84
2022/12/18 07:31:15;;;;;;;21.02;13.57;;;;;;;;;;5079203;28;20627;-81
2022/12/18 07:33:45;;;;;;;22.58;13.57;;;;;;;;;;5078069;28;20221;-82
2022/12/18 07:36:15;;;;;;;15.05;11.00;;;;;;;;;;5079693;28;20205;-82
2022/12/18 07:38:43;;;;;;;14.90;9.73;;;;;;;;;;5078936;28;20201;-81
2022/12/18 07:41:13;;;;;;;15.93;10.85;;;;;;;;;;5079213;28;20295;-81
2022/12/18 07:43:41;;;;;;;15.43;11.40;;;;;;;;;;5078813;28;20731;-81
2022/12/18 07:46:10;;;;;;;15.60;9.65;;;;;;;;;;5079268;28;20261;-82
2022/12/18 07:48:37;;;;;;;11.82;8.80;;;;;;;;;;5091633;28;20287;-82
2022/12/18 07:51:07;;;;;;;12.80;8.25;;;;;;;;;;5092033;28;20232;-82
2022/12/18 07:53:37;;;;;;;10.38;7.93;;;;;;;;;;5077489;28;20251;-82
2022/12/18 07:56:08;;;;;;;14.60;9.00;;;;;;;;;;5072547;28;20244;-80
2022/12/18 07:58:37;;;;;;;17.65;10.15;;;;;;;;;;5077477;28;20236;-82
2022/12/18 08:01:06;;;;;;;12.30;7.75;;;;;;;;;;5073116;28;20197;-82
2022/12/18 08:03:33;;;;;;;12.75;9.45;;;;;;;;;;5076953;28;20312;-82
2022/12/18 08:06:02;;;;;;;9.82;6.57;;;;;;;;;;5078590;28;20296;-81
2022/12/18 08:08:30;;;;;;;12.65;7.55;;;;;;;;;;5076627;28;20298;-81
2022/12/18 08:11:00;;;;;;;12.07;7.38;;;;;;;;;;5077851;28;20279;-82
2022/12/18 08:13:28;;;;;;;9.63;7.55;;;;;;;;;;5077888;28;20303;-82
2022/12/18 08:15:59;;;;;;;13.63;9.48;;;;;;;;;;5077763;28;20211;-82
2022/12/18 08:18:27;;;;;;;20.45;11.00;;;;;;;;;;5078319;28;20672;-81
2022/12/18 08:20:56;;;;;;;15.48;10.13;;;;;;;;;;5066230;28;20586;-80
2022/12/18 08:23:24;;;;;;;20.17;12.95;;;;;;;;;;5078812;28;20215;-82
2022/12/18 08:25:51;;;;;;;16.92;10.82;;;;;;;;;;5077703;28;20269;-81
2022/12/18 08:28:20;;;;;;;18.17;12.18;;;;;;;;;;5067464;28;20631;-81
2022/12/18 08:30:48;;;;;;;18.42;11.15;;;;;;;;;;5065745;28;20280;-82
2022/12/18 08:33:15;;;;;;;15.55;10.35;;;;;;;;;;5069989;28;20545;-83
2022/12/18 08:35:43;;;;;;;19.83;11.93;;;;;;;;;;5078874;28;20666;-82
2022/12/18 08:38:10;;;;;;;13.38;9.55;;;;;;;;;;5073468;28;20213;-82
2022/12/18 08:40:38;;;;;;;12.68;8.93;;;;;;;;;;5079134;28;20228;-80
2022/12/18 08:45:51;;;;;;;12.57;9.57;;;;;;;;;;5076463;28;20188;-82
2022/12/18 08:48:19;;;;;;;19.42;12.95;;;;;;;;;;5078341;28;20189;-82
2022/12/18 08:50:55;;;;;;;19.05;11.77;;;;;;;;;;5080167;28;20539;-82
2022/12/18 08:53:26;;;;;;;13.10;9.60;;;;;;;;;;5076962;28;20549;-82
2022/12/18 08:55:53;;;;;;;22.95;14.25;;;;;;;;;;5076085;28;20663;-82
2022/12/18 08:58:21;;;;;;;18.45;11.98;;;;;;;;;;5077621;28;20219;-81
2022/12/18 09:00:48;;;;;;;17.05;11.73;;;;;;;;;;5058653;28;20286;-80
2022/12/18 09:03:19;;;;;;;18.95;13.95;;;;;;;;;;5073880;28;20221;-82
2022/12/18 09:05:47;;;;;;;21.33;13.00;;;;;;;;;;5078460;28;20242;-81
2022/12/18 09:08:15;;;;;;;17.77;11.52;;;;;;;;;;5079221;28;20223;-82
2022/12/18 09:10:47;;;;;;;12.65;9.82;;;;;;;;;;5077771;28;20292;-83
2022/12/18 09:13:15;;;;;;;14.65;9.75;;;;;;;;;;5078074;28;20622;-83
2022/12/18 09:15:43;;;;;;;18.55;12.50;;;;;;;;;;5079137;28;20197;-82
2022/12/18 09:18:11;;;;;;;20.45;13.90;;;;;;;;;;5076927;28;20223;-82
2022/12/18 09:20:40;;;;;;;12.68;9.43;;;;;;;;;;5079399;28;20685;-83
2022/12/18 09:23:09;;;;;;;18.35;11.75;;;;;;;;;;5073770;28;20299;-82
2022/12/18 09:25:37;;;;;;;18.02;11.82;;;;;;;;;;5083483;28;20298;-81
2022/12/18 09:28:10;;;;;;;18.25;12.30;;;;;;;;;;5078272;28;20229;-80
2022/12/18 09:30:39;;;;;;;16.88;11.60;;;;;;;;;;5081177;28;20289;-83
2022/12/18 09:33:07;;;;;;;19.42;12.95;;;;;;;;;;5080029;28;20225;-83
2022/12/18 09:35:36;;;;;;;20.42;13.32;;;;;;;;;;5091668;28;20644;-83
2022/12/18 09:38:05;;;;;;;19.95;13.48;;;;;;;;;;5076274;28;20586;-82
2022/12/18 09:40:37;;;;;;;20.33;13.07;;;;;;;;;;5073629;28;20236;-83
2022/12/18 09:43:06;;;;;;;21.00;14.00;;;;;;;;;;5072523;28;20236;-83
2022/12/18 09:45:40;;;;;;;16.33;12.02;;;;;;;;;;5077672;28;20657;-82
2022/12/18 09:48:11;;;;;;;20.17;12.52;;;;;;;;;;5080216;28;20200;-82
2022/12/18 09:50:40;;;;;;;21.35;12.07;;;;;;;;;;5093976;28;20204;-83
2022/12/18 09:53:15;;;;;;;22.27;14.25;;;;;;;;;;5073179;28;20241;-82
2022/12/18 09:55:45;;;;;;;19.15;13.45;;;;;;;;;;5079047;28;20201;-83
2022/12/18 09:58:18;;;;;;;19.30;14.02;;;;;;;;;;5076510;28;20228;-82
2022/12/18 10:00:46;;;;;;;19.40;13.75;;;;;;;;;;5079215;28;20276;-83
2022/12/18 10:03:15;;;;;;;18.38;13.15;;;;;;;;;;5079031;28;20228;-82
2022/12/18 10:05:49;;;;;;;16.63;11.63;;;;;;;;;;5077930;28;20220;-83
2022/12/18 10:08:23;;;;;;;19.13;14.82;;;;;;;;;;5070319;28;20223;-80
2022/12/18 10:10:53;;;;;;;19.15;13.15;;;;;;;;;;5075993;28;20220;-82
2022/12/18 10:13:27;;;;;;;18.75;13.07;;;;;;;;;;5078191;28;20213;-82
2022/12/18 10:16:05;;;;;;;25.13;16.42;;;;;;;;;;5073841;28;20231;-83
2022/12/18 10:18:58;;;;;;;19.75;13.60;;;;;;;;;;5078710;28;20201;-80
2022/12/18 10:21:31;;;;;;;20.92;14.48;;;;;;;;;;5071196;28;20283;-83
2022/12/18 10:24:09;;;;;;;19.55;13.95;;;;;;;;;;5081336;28;20256;-82
2022/12/18 10:26:37;;;;;;;17.98;11.40;;;;;;;;;;5076199;28;20246;-82
2022/12/18 10:29:11;;;;;;;16.88;12.75;;;;;;;;;;5071008;28;20279;-84
2022/12/18 10:31:38;;;;;;;24.42;14.73;;;;;;;;;;5079867;28;20205;-83
2022/12/18 10:34:09;;;;;;;17.85;12.32;;;;;;;;;;5076735;28;20286;-84
2022/12/18 10:36:37;;;;;;;23.70;15.05;;;;;;;;;;5082534;28;20222;-84
2022/12/18 10:39:22;;;;;;;18.38;13.43;;;;;;;;;;5077930;28;20303;-85
2022/12/18 10:41:53;;;;;;;17.83;11.77;;;;;;;;;;5093311;28;20210;-85
2022/12/18 10:44:23;;;;;;;18.75;14.18;;;;;;;;;;5072643;28;20228;-86
2022/12/18 10:46:55;;;;;;;20.38;14.32;;;;;;;;;;5081148;28;20197;-85
2022/12/18 10:49:28;;;;;;;15.48;13.05;;;;;;;;;;5080155;28;20255;-82
2022/12/18 10:52:08;;;;;;;19.20;13.50;;;;;;;;;;5078585;28;20288;-83
2022/12/18 10:54:38;;;;;;;21.30;14.10;;;;;;;;;;5077353;28;20197;-85
2022/12/18 10:57:30;;;;;;;22.75;15.02;;;;;;;;;;5076202;28;20296;-84
2022/12/18 11:00:19;;;;;;;20.75;15.15;;;;;;;;;;5077541;28;20224;-84
2022/12/18 11:02:47;;;;;;;22.90;14.90;;;;;;;;;;5069772;28;20229;-83
2022/12/18 11:05:27;;;;;;;16.73;13.35;;;;;;;;;;5072457;28;20268;-84
2022/12/18 11:07:56;;;;;;;24.00;14.38;;;;;;;;;;5095791;28;20215;-84
2022/12/18 11:10:30;;;;;;;20.58;15.25;;;;;;;;;;5093754;28;20182;-84
2022/12/18 11:13:09;;;;;;;16.42;12.43;;;;;;;;;;5072843;28;20218;-83
2022/12/18 11:15:36;;;;;;;21.10;14.65;;;;;;;;;;5080081;28;20219;-84
2022/12/18 11:18:04;;;;;;;19.25;14.02;;;;;;;;;;5077801;28;20307;-83
2022/12/18 11:20:34;;;;;;;22.45;15.60;;;;;;;;;;5078664;28;20284;-83
2022/12/18 11:23:04;;;;;;;24.10;14.52;;;;;;;;;;5070794;28;20240;-84
2022/12/18 11:25:34;;;;;;;23.73;14.40;;;;;;;;;;5079584;28;20197;-82
2022/12/18 11:28:03;;;;;;;16.92;13.02;;;;;;;;;;5077276;28;20205;-84
2022/12/18 11:30:33;;;;;;;15.57;12.35;;;;;;;;;;5073898;28;20288;-84
2022/12/18 11:33:06;;;;;;;20.27;13.90;;;;;;;;;;5085106;28;20340;-84
2022/12/18 11:35:42;;;;;;;16.13;13.07;;;;;;;;;;5077157;28;20240;-83
2022/12/18 11:38:22;;;;;;;21.20;14.25;;;;;;;;;;5066021;28;20219;-84
2022/12/18 11:40:56;;;;;;;16.75;12.75;;;;;;;;;;5078332;28;20203;-84
2022/12/18 11:43:28;;;;;;;19.35;13.77;;;;;;;;;;5079291;28;20593;-84
2022/12/18 11:46:00;;;;;;;21.15;14.57;;;;;;;;;;5080756;28;20284;-84
2022/12/18 11:48:31;;;;;;;18.92;12.57;;;;;;;;;;5081041;28;20217;-84
2022/12/18 11:50:59;;;;;;;19.27;14.55;;;;;;;;;;5098664;22;20217;-80
2022/12/18 11:53:28;;;;;;;18.83;14.23;;;;;;;;;;5064873;28;20555;-80
2022/12/18 11:56:07;;;;;;;18.90;14.68;;;;;;;;;;5071149;28;20208;-80
2022/12/18 11:58:54;;;;;;;23.88;16.73;;;;;;;;;;5062212;28;20231;-79
2022/12/18 12:01:36;;;;;;;31.70;28.00;;;;;;;;;;5062710;28;20215;-80
2022/12/18 12:04:32;;;;;;;25.00;22.48;;;;;;;;;;5059508;28;20199;-80
2022/12/18 12:07:06;;;;;;;24.33;21.88;;;;;;;;;;5018473;28;20213;-80
2022/12/18 12:09:41;;;;;;;23.20;16.30;;;;;;;;;;5058591;28;20204;-80
2022/12/18 12:12:28;;;;;;;20.30;17.13;;;;;;;;;;5061948;28;20216;-80
2022/12/18 12:15:01;;;;;;;21.52;14.13;;;;;;;;;;5072566;28;20582;-80
2022/12/18 12:17:36;;;;;;;16.23;12.75;;;;;;;;;;5076357;28;20197;-79
2022/12/18 12:20:11;;;;;;;20.40;14.52;;;;;;;;;;5072285;28;20303;-81
2022/12/18 12:22:45;;;;;;;16.00;11.95;;;;;;;;;;5069293;28;20289;-82
2022/12/18 12:25:29;;;;;;;18.30;13.65;;;;;;;;;;5074889;28;20192;-82
2022/12/18 12:28:10;;;;;;;16.25;13.30;;;;;;;;;;5072519;28;20212;-81
2022/12/18 12:30:50;;;;;;;21.35;14.75;;;;;;;;;;5065397;28;20207;-83
2022/12/18 12:33:30;;;;;;;16.05;11.57;;;;;;;;;;5063999;28;20196;-80
2022/12/18 12:36:05;;;;;;;18.45;11.73;;;;;;;;;;5066610;28;20207;-82
2022/12/18 12:38:37;;;;;;;16.55;12.88;;;;;;;;;;5066446;28;20296;-80
2022/12/18 12:43:12;;;;;;;16.17;11.40;;;;;;;;;;5065780;28;20224;-80
2022/12/18 12:43:58;;;;;;;15.50;11.25;;;;;;;;;;5066641;28;20205;-81
2022/12/18 12:46:27;;;;;;;14.73;10.95;;;;;;;;;;5067398;28;20248;-81
2022/12/18 12:48:57;;;;;;;13.02;9.90;;;;;;;;;;5075499;28;20283;-80
2022/12/18 12:51:28;;;;;;;14.52;10.55;;;;;;;;;;5067333;28;20312;-79
2022/12/18 12:53:57;;;;;;;13.27;9.43;;;;;;;;;;5066284;28;20211;-80
2022/12/18 12:56:31;;;;;;;18.85;11.30;;;;;;;;;;5066262;28;20198;-79
2022/12/18 12:59:09;;;;;;;14.07;9.65;;;;;;;;;;5063361;28;20304;-79
2022/12/18 13:01:42;;;;;;;10.38;8.23;;;;;;;;;;5063749;28;20221;-81
2022/12/18 13:04:22;;;;;;;12.80;9.65;;;;;;;;;;5063918;28;20201;-80
2022/12/18 13:06:55;;;;;;;14.27;9.82;;;;;;;;;;5068251;28;20575;-80
2022/12/18 13:09:23;;;;;;;16.23;9.88;;;;;;;;;;5068669;28;20201;-79
2022/12/18 13:14:39;;;;;;;12.40;9.63;;;;;;;;;;5065906;28;20208;-80
2022/12/18 13:17:24;;;;;;;11.85;9.40;;;;;;;;;;5064669;28;20193;-79
2022/12/18 13:19:53;;;;;;;11.48;8.68;;;;;;;;;;5069928;28;20258;-82
2022/12/18 13:22:25;;;;;;;12.15;8.65;;;;;;;;;;5064382;28;20223;-81
2022/12/18 13:24:53;;;;;;;12.57;8.55;;;;;;;;;;5065232;28;20672;-82
2022/12/18 13:28:00;;;;;;;10.88;8.73;;;;;;;;;;5059926;28;20194;-80
2022/12/18 13:30:54;;;;;;;8.95;6.70;;;;;;;;;;5070639;28;20203;-80
2022/12/18 13:33:44;;;;;;;9.38;6.45;;;;;;;;;;5061219;28;20202;-80
2022/12/18 13:36:18;;;;;;;11.10;6.78;;;;;;;;;;5068167;28;20231;-80
2022/12/18 13:38:46;;;;;;;8.15;7.03;;;;;;;;;;5063859;28;20199;-80
2022/12/18 13:41:26;;;;;;;12.57;7.60;;;;;;;;;;5068463;28;20231;-79
2022/12/18 13:43:57;;;;;;;8.50;6.82;;;;;;;;;;5060686;28;20261;-80
2022/12/18 13:46:30;;;;;;;7.22;6.22;;;;;;;;;;5071717;28;20271;-81
2022/12/18 13:49:01;;;;;;;7.43;5.75;;;;;;;;;;5063865;28;20201;-79
2022/12/18 13:51:29;;;;;;;7.15;5.55;;;;;;;;;;5063581;28;20228;-79
2022/12/18 13:53:59;;;;;;;9.40;6.13;;;;;;;;;;5060634;28;20201;-81
2022/12/18 13:56:29;;;;;;;7.82;6.40;;;;;;;;;;5072351;28;20645;-80
2022/12/18 13:59:19;;;;;;;8.23;6.15;;;;;;;;;;5061127;28;20216;-81
2022/12/18 14:01:53;;;;;;;6.18;5.00;;;;;;;;;;5063771;28;20221;-80
2022/12/18 14:04:27;;;;;;;8.77;5.63;;;;;;;;;;5061861;28;20201;-79
2022/12/18 14:06:59;;;;;;;8.15;6.13;;;;;;;;;;5069928;28;20248;-79
2022/12/18 14:09:29;;;;;;;7.57;5.40;;;;;;;;;;5058333;28;20202;-79
2022/12/18 14:14:43;;;;;;;8.52;6.78;;;;;;;;;;5055105;28;20205;-80
2022/12/18 14:17:13;;;;;;;8.25;6.43;;;;;;;;;;5075077;28;20657;-81
2022/12/18 14:19:44;;;;;;;7.28;5.40;;;;;;;;;;5065049;28;20307;-79
2022/12/18 14:22:18;;;;;;;9.25;6.35;;;;;;;;;;5062038;28;20247;-80
2022/12/18 14:24:46;;;;;;;8.77;6.03;;;;;;;;;;5065897;28;20208;-79
2022/12/18 14:27:23;;;;;;;8.32;6.35;;;;;;;;;;5065309;28;20273;-79
2022/12/18 14:29:51;;;;;;;6.38;5.75;;;;;;;;;;5052458;28;20204;-79
2022/12/18 14:32:22;;;;;;;7.72;5.82;;;;;;;;;;5055842;28;20216;-79
2022/12/18 14:34:51;;;;;;;7.55;6.40;;;;;;;;;;5066319;28;20201;-79
2022/12/18 14:37:22;;;;;;;5.82;4.95;;;;;;;;;;5059598;28;20354;-80
2022/12/18 14:40:02;;;;;;;6.10;5.40;;;;;;;;;;5059430;28;20196;-80
2022/12/18 14:42:30;;;;;;;8.00;5.95;;;;;;;;;;5067361;28;20240;-79
2022/12/18 14:45:40;;;;;;;8.05;6.30;;;;;;;;;;5055407;28;20598;-80
2022/12/18 14:48:18;;;;;;;7.25;5.15;;;;;;;;;;5054757;28;20229;-80
2022/12/18 14:50:54;;;;;;;8.43;5.65;;;;;;;;;;5067756;28;20209;-79
2022/12/18 14:53:29;;;;;;;9.45;5.80;;;;;;;;;;5068034;28;20657;-79
2022/12/18 14:55:56;;;;;;;7.10;5.38;;;;;;;;;;5075926;28;20201;-80
2022/12/18 14:58:24;;;;;;;6.57;5.63;;;;;;;;;;5075169;28;20288;-80
2022/12/18 15:00:51;;;;;;;11.13;6.93;;;;;;;;;;5073614;28;20243;-79